Pagrindinis puslapis
METAR-TAF:

METAR-TAF

Oro uostai :

Dillingham, Aliaska, Jungtinės Amerikos Valstijos

platuma: 59-03N, ilguma: 158-31W, Aukštis: 26 m

Dabartinis oras

Ataskaita buvo paskelbta 19 minutes, ne 06:56 UTC
Ramus vėjas
Temperatūra -18°C
Drėgmė 77%
Slėgis 1014 hPa
Matomumas: 16.1 km
Giedras dangus

METAR: PADL 280656Z AUTO 00000KT 10SM CLR M18/M21 A2993 RMK AO2 SLP141 T11781206 FZRANO PNO $

Laikas: 22:15 (07:15 UTC)

Prognozė

Ataskaita buvo paskelbta 1 valandą ir 55 minutes, ne 05:20 UTC
Prognozė galioja nuo 28 metu 06 UTC su 29 metu 06 UTC
Vėjas 3 kt nuo kintamojo kryptimis
Matomumas: 10 km
Giedras dangus

TAF: PADL 280520Z 2806/2906 VRB03KT P6SM SKC

Orai ataskaitas ir orų prognozės (METAR, TAF).

turimą stotys yra geltonos ir raudonos taškus žemėlapyje.

Perkelti pele per norėdami pamatyti stoties vardą.

Tada spustelėkite, norėdami matyti oro stebėjimo ir prognozės.

Norėdami pakeisti žemėlapį: spustelėkite ant žalios mygtukų su juodo kryžiaus žemyn,; žalią mygtuką su brūkšneliu, jei norite nutolinti; arba žalių rodyklių gretimoms žemėlapius.


METAR-TAF: